Airfield :
LOGIN :

Register | Disclaimer

   EN    FR    IT 

 










Legend :    VFR   Marginal VFR   IFR   Intensive IFR   Very Intensive IFR
Visi :
Ceiling :
>= 8 km
>= 3000ft
5 to 8 km
1000 to 3000 ft
1500m to 5 km
500 to 1000 ft
800 to 1500m
200 to 500 ft
< 800m
< 200 ft
Symbols :   Thunderstorms  Fog  Heavy snow  Heavy precipitations  Wind > 20 kt
SIGMETs :     Misc.  Thunderstorms  Icing  Turbulence  Mountain Waves  Volcanic Ashes







- Airport Elevation : 160 ft
- IATA code : LRT
- Download approach charts


LFRH - Lorient Lann Bihoue

CURRENT METAR :
  • 170530Z AUTO 25013KT 4800 2100 BR OVC002 18/18 Q1016 TEMPO VV///

EXPIRED METARs :
  • 170500Z AUTO 25014KT 2500 BR VV/// 18/18 Q1016 TEMPO 20015G25KT OVC008 BECMG 6000 RA
  • 170430Z AUTO 25013KT 4400 -RADZ BR OVC002 19/18 Q1015 TEMPO 20015G25KT VV/// BECMG 6000 RA
  • 170400Z AUTO 24013KT 4100 -RA BR OVC002 19/18 Q1015 TEMPO 20015G25KT 2000 -RA BR VV///
  • 170330Z AUTO 23014KT 2900 RA BR VV/// 19/18 Q1015 TEMPO 20015G25KT
  • 170300Z AUTO 24014KT 3900 -RA BR OVC002 19/18 Q1015 TEMPO 20015G25KT 2000 -RA BR VV///

TAF TAF LFRH
Valid from the 17 at 06:00 until the 18 at 06:00 UTC


170500Z 1706/1806 23010KT 3000 BR VV///
TEMPO 1706/1723 23010G20KT 4000 -RADZ BR OVC002
BECMG 1707/1709 6000 NSW SCT002 OVC008
BECMG 1710/1712 9999 BKN008 BKN015
BECMG 1714/1716 OVC008
BECMG 1723/1801 29010KT SCT008 BKN020
No reported NOTAMs for that airfield.



MET'MAP, your aeronautical weather chart ! - Copyright ORBIFLY December 2007 - Disclaimer

ORBIFLY MET'MAP TEAM :

Programming & Development : Alexandra Zaïnal
Concept & Development : Baudouin d'Aumeries
Co-Development & Prog : Marc-Olivier Méhu
Technical & hardware support : Manuel Goepfert

Contact : metmap@orbifly.com




SOURCES & CREDITS :

   NOAA